createdAt,value
2018-04-21T00:02:54.409Z,57.64
2018-04-21T00:07:55.736Z,57.13
2018-04-21T00:12:57.770Z,56.73
2018-04-21T00:17:59.092Z,56.73
2018-04-21T00:23:00.446Z,56.93
2018-04-21T00:28:01.782Z,56.48
2018-04-21T00:33:03.122Z,57.31
2018-04-21T00:38:07.207Z,58.13
2018-04-21T00:43:08.530Z,58.91
2018-04-21T00:48:09.846Z,58.96
2018-04-21T00:53:11.223Z,57.35
2018-04-21T00:58:13.298Z,54.74
2018-04-21T01:03:14.737Z,55.41
2018-04-21T01:08:16.235Z,53.71
2018-04-21T01:13:17.866Z,55.68
2018-04-21T01:18:19.438Z,55.86
2018-04-21T01:23:20.747Z,55.86
2018-04-21T01:28:22.052Z,57.38
2018-04-21T01:33:23.567Z,58.76
2018-04-21T01:38:24.925Z,59.29
2018-04-21T01:43:26.275Z,58.70
2018-04-21T01:48:27.590Z,59.68
2018-04-21T01:53:28.937Z,60.77
2018-04-21T01:58:31.008Z,61.16
2018-04-21T02:03:32.319Z,61.03
2018-04-21T02:08:33.639Z,61.62
2018-04-21T02:13:34.958Z,61.78
2018-04-21T02:18:36.267Z,61.00
2018-04-21T02:23:37.642Z,61.61
2018-04-21T02:28:38.967Z,61.10
2018-04-21T02:33:40.310Z,61.65
2018-04-21T02:38:41.636Z,62.44
2018-04-21T02:43:43.007Z,62.55
2018-04-21T02:48:44.309Z,62.34
2018-04-21T02:53:45.617Z,62.84
2018-04-21T02:58:47.027Z,62.88
2018-04-21T03:03:49.081Z,61.51
2018-04-21T03:08:50.397Z,61.04
2018-04-21T03:13:51.713Z,61.23
2018-04-21T03:18:53.754Z,60.39
2018-04-21T03:23:55.135Z,60.88
2018-04-21T03:28:56.471Z,61.11
2018-04-21T03:33:57.805Z,61.58
2018-04-21T03:38:59.114Z,61.35
2018-04-21T03:44:00.563Z,60.34
2018-04-21T03:49:01.948Z,60.12
2018-04-21T03:54:03.391Z,60.45
2018-04-21T03:59:04.781Z,59.73
2018-04-21T04:04:06.133Z,60.39
2018-04-21T04:09:07.454Z,60.21
2018-04-21T04:14:27.560Z,60.49
2018-04-21T04:25:30.873Z,61.31
2018-04-21T04:30:32.192Z,60.68
2018-04-21T04:35:33.626Z,61.38
2018-04-21T04:40:35.663Z,61.41
2018-04-21T04:45:36.974Z,60.69
2018-04-21T04:50:39.301Z,60.48
2018-04-21T04:55:41.761Z,60.02
2018-04-21T05:00:43.153Z,60.45
2018-04-21T05:05:45.592Z,60.13
2018-04-21T05:10:46.885Z,58.96
2018-04-21T05:15:48.369Z,59.69
2018-04-21T05:20:49.723Z,59.35
2018-04-21T05:25:51.034Z,58.04
2018-04-21T05:30:53.204Z,58.45
2018-04-21T05:35:55.006Z,58.59
2018-04-21T05:40:56.330Z,57.88
2018-04-21T05:45:58.349Z,58.01
2018-04-21T05:50:59.646Z,57.46
2018-04-21T05:56:01.014Z,57.64
2018-04-21T06:01:03.109Z,57.29
2018-04-21T06:06:05.145Z,57.04
2018-04-21T06:11:06.454Z,57.58
2018-04-21T06:16:07.789Z,57.27
2018-04-21T06:21:09.090Z,56.91
2018-04-21T06:26:11.174Z,56.78
2018-04-21T06:31:12.473Z,56.04
2018-04-21T06:36:14.531Z,57.05
2018-04-21T06:41:15.864Z,57.88
2018-04-21T06:46:17.301Z,57.12
2018-04-21T06:51:18.804Z,57.47
2018-04-21T06:56:20.917Z,56.96
2018-04-21T07:01:22.250Z,56.19
2018-04-21T07:06:24.294Z,55.56
2018-04-21T07:11:25.601Z,55.85
2018-04-21T07:16:26.917Z,55.42
2018-04-21T07:21:28.242Z,56.03
2018-04-21T07:26:30.212Z,55.18
2018-04-21T07:31:31.513Z,55.65
2018-04-21T07:36:33.561Z,54.87
2018-04-21T07:41:34.898Z,54.99
2018-04-21T07:46:36.441Z,54.99
2018-04-21T07:51:37.819Z,55.30
2018-04-21T07:56:39.178Z,53.68
2018-04-21T08:01:40.493Z,54.46
2018-04-21T08:06:41.817Z,54.87
2018-04-21T08:11:43.148Z,54.11
2018-04-21T08:16:45.245Z,54.04
2018-04-21T08:21:46.603Z,54.47
2018-04-21T08:26:47.930Z,53.66
2018-04-21T08:31:49.249Z,52.93
2018-04-21T08:36:50.565Z,52.14
2018-04-21T08:41:51.888Z,53.90
2018-04-21T08:46:53.189Z,52.66
2018-04-21T08:51:55.270Z,52.25
2018-04-21T08:56:56.608Z,52.41
2018-04-21T09:01:57.928Z,52.70
2018-04-21T09:06:59.261Z,51.50
2018-04-21T09:12:00.636Z,50.84
2018-04-21T09:17:02.205Z,50.40
2018-04-21T09:22:03.574Z,51.05
2018-04-21T09:27:04.929Z,50.81
2018-04-21T09:32:07.058Z,50.22
2018-04-21T09:37:08.395Z,49.29
2018-04-21T09:42:09.718Z,48.54
2018-04-21T09:47:11.792Z,49.00
2018-04-21T09:52:13.124Z,49.19
2018-04-21T09:57:21.421Z,48.04
2018-04-21T10:02:22.734Z,47.62
2018-04-21T10:07:24.083Z,45.12
2018-04-21T10:12:25.404Z,43.69
2018-04-21T10:17:26.754Z,43.74
2018-04-21T10:22:28.110Z,43.61
2018-04-21T10:27:29.445Z,44.09
2018-04-21T10:32:30.750Z,44.11
2018-04-21T10:37:32.404Z,44.11
2018-04-21T10:42:33.885Z,43.73
2018-04-21T10:47:35.945Z,43.81
2018-04-21T10:52:37.302Z,42.61
2018-04-21T10:57:38.634Z,42.54
2018-04-21T11:02:39.983Z,42.71
2018-04-21T11:07:41.302Z,40.97
2018-04-21T11:12:42.640Z,41.19
2018-04-21T11:17:44.726Z,40.67
2018-04-21T11:22:46.045Z,41.17
2018-04-21T11:27:47.367Z,40.47
2018-04-21T11:32:48.808Z,40.05
2018-04-21T11:37:50.893Z,40.71
2018-04-21T11:42:52.259Z,40.67
2018-04-21T11:47:53.589Z,40.42
2018-04-21T11:52:55.666Z,40.81
2018-04-21T11:57:56.989Z,39.53
2018-04-21T12:02:59.042Z,39.44
2018-04-21T12:08:00.378Z,39.35
2018-04-21T12:13:01.766Z,38.85
2018-04-21T12:18:03.077Z,38.57
2018-04-21T12:23:05.146Z,38.78
2018-04-21T12:28:06.453Z,38.83
2018-04-21T12:33:07.778Z,38.22
2018-04-21T12:38:09.120Z,38.08
2018-04-21T12:43:10.439Z,36.21
2018-04-21T12:48:12.512Z,37.23
2018-04-21T12:53:13.841Z,36.53
2018-04-21T12:58:15.153Z,37.56
2018-04-21T13:03:16.478Z,35.95
2018-04-21T13:08:17.822Z,36.83
2018-04-21T13:13:19.197Z,34.71
2018-04-21T13:18:20.552Z,35.96
2018-04-21T13:23:21.844Z,34.69
2018-04-21T13:28:23.159Z,35.43
2018-04-21T13:33:24.518Z,32.61
2018-04-21T13:38:25.821Z,33.14
2018-04-21T13:43:27.870Z,31.86
2018-04-21T13:48:29.202Z,32.54
2018-04-21T13:53:30.538Z,32.42
2018-04-21T13:58:31.858Z,31.66
2018-04-21T14:03:33.198Z,30.51
2018-04-21T14:08:35.270Z,29.70
2018-04-21T14:13:36.605Z,29.13
2018-04-21T14:18:37.908Z,29.65
2018-04-21T14:23:39.215Z,30.89
2018-04-21T14:28:40.571Z,30.70
2018-04-21T14:33:41.833Z,29.40
2018-04-21T14:38:43.158Z,28.94
2018-04-21T14:43:44.488Z,29.98
2018-04-21T14:48:45.802Z,30.74
2018-04-21T14:53:47.154Z,29.07
2018-04-21T14:58:48.450Z,28.87
2018-04-21T15:03:49.758Z,30.08
2018-04-21T15:08:51.061Z,31.04
2018-04-21T15:13:53.097Z,30.96
2018-04-21T15:18:54.407Z,31.08
2018-04-21T15:23:55.733Z,29.79
2018-04-21T15:28:57.033Z,30.67
2018-04-21T15:33:58.498Z,29.95
2018-04-21T15:38:59.821Z,29.73
2018-04-21T15:44:01.905Z,29.49
2018-04-21T15:49:03.321Z,29.15
2018-04-21T15:54:05.385Z,28.95
2018-04-21T15:59:06.692Z,30.49
2018-04-21T16:04:08.118Z,30.46
2018-04-21T16:09:10.357Z,30.68
2018-04-21T16:14:11.742Z,30.95
2018-04-21T16:19:13.070Z,31.44
2018-04-21T16:24:14.554Z,31.40
2018-04-21T16:29:15.886Z,31.20
2018-04-21T16:34:17.942Z,32.36
2018-04-21T16:39:19.291Z,31.37
2018-04-21T16:44:20.601Z,32.25
2018-04-21T16:49:21.891Z,32.70
2018-04-21T16:54:23.232Z,33.10
2018-04-21T16:59:24.547Z,33.52
2018-04-21T17:04:25.898Z,33.99
2018-04-21T17:09:27.207Z,33.82
2018-04-21T17:14:28.547Z,34.23
2018-04-21T17:19:29.876Z,33.89
2018-04-21T17:24:31.194Z,34.28
2018-04-21T17:29:32.507Z,34.46
2018-04-21T17:34:34.544Z,34.89
2018-04-21T17:39:35.880Z,36.25
2018-04-21T17:44:37.201Z,37.00
2018-04-21T17:49:38.497Z,39.15
2018-04-21T17:54:39.825Z,38.93
2018-04-21T17:59:41.133Z,38.95
2018-04-21T18:04:42.433Z,39.22
2018-04-21T18:09:43.742Z,39.53
2018-04-21T18:14:45.049Z,40.28
2018-04-21T18:19:46.345Z,40.42
2018-04-21T18:24:47.670Z,40.73
2018-04-21T18:29:50.102Z,41.08
2018-04-21T18:34:51.487Z,41.57
2018-04-21T18:39:52.869Z,42.11
2018-04-21T18:44:54.941Z,42.92
2018-04-21T18:49:56.686Z,44.29
2018-04-21T18:54:58.037Z,44.18
2018-04-21T18:59:59.712Z,44.97
2018-04-21T19:05:01.190Z,44.02
2018-04-21T19:10:02.566Z,43.54
2018-04-21T19:15:03.884Z,44.01
2018-04-21T19:20:05.195Z,44.47
2018-04-21T19:25:06.511Z,44.10
2018-04-21T19:30:08.547Z,43.98
2018-04-21T19:35:09.853Z,43.69
2018-04-21T19:40:11.149Z,43.70
2018-04-21T19:45:12.482Z,43.39
2018-04-21T19:50:14.535Z,43.48
2018-04-21T19:55:15.870Z,43.31
2018-04-21T20:00:17.925Z,44.18
2018-04-21T20:05:19.230Z,44.42
2018-04-21T20:10:20.566Z,44.82
2018-04-21T20:15:22.644Z,46.29
2018-04-21T20:20:23.967Z,47.88
2018-04-21T20:25:26.020Z,47.85
2018-04-21T20:30:27.370Z,47.09
2018-04-21T20:35:28.698Z,46.52
2018-04-21T20:40:30.189Z,46.43
2018-04-21T20:45:31.489Z,46.45
2018-04-21T20:50:32.830Z,46.58
2018-04-21T20:55:34.141Z,47.59
2018-04-21T21:00:35.454Z,48.88
2018-04-21T21:05:36.788Z,49.66
2018-04-21T21:10:38.837Z,47.89
2018-04-21T21:15:40.160Z,49.04
2018-04-21T21:20:41.457Z,51.07
2018-04-21T21:25:42.792Z,51.03
2018-04-21T21:30:44.089Z,51.28
2018-04-21T21:35:45.397Z,51.76
2018-04-21T21:40:46.716Z,52.43
2018-04-21T21:45:48.023Z,52.08
2018-04-21T21:50:50.062Z,52.44
2018-04-21T21:55:51.393Z,52.75
2018-04-21T22:00:52.733Z,54.03
2018-04-21T22:05:54.065Z,53.98
2018-04-21T22:10:55.372Z,54.54
2018-04-21T22:15:57.470Z,54.90
2018-04-21T22:20:58.813Z,54.37
2018-04-21T22:26:00.110Z,55.06
2018-04-21T22:31:01.453Z,54.66
2018-04-21T22:36:02.840Z,55.38
2018-04-21T22:41:04.902Z,55.53
2018-04-21T22:46:06.203Z,55.36
2018-04-21T22:51:07.518Z,56.53
2018-04-21T22:56:08.829Z,57.54
2018-04-21T23:01:10.157Z,57.68
2018-04-21T23:06:11.510Z,57.45
2018-04-21T23:11:12.810Z,58.71
2018-04-21T23:16:14.168Z,58.65
2018-04-21T23:21:16.222Z,58.15
2018-04-21T23:26:17.555Z,57.52
2018-04-21T23:31:18.877Z,57.29
2018-04-21T23:36:20.191Z,56.74
2018-04-21T23:41:21.506Z,55.98
2018-04-21T23:46:22.802Z,55.59
2018-04-21T23:51:24.105Z,55.52
2018-04-21T23:56:25.406Z,55.14
